sensor_id;sensor_type;location;lat;lon;timestamp;P1;durP1;ratioP1;P2;durP2;ratioP2
76786;SDS011;65739;51.482;5.702;2024-03-23T00:53:05;21.08;;;4.07;;
76786;SDS011;65739;51.482;5.702;2024-03-23T00:55:31;17.85;;;4.00;;
76786;SDS011;65739;51.482;5.702;2024-03-23T00:57:57;13.07;;;4.93;;
76786;SDS011;65739;51.482;5.702;2024-03-23T01:00:22;12.82;;;3.63;;
76786;SDS011;65739;51.482;5.702;2024-03-23T01:02:48;20.05;;;3.88;;
76786;SDS011;65739;51.482;5.702;2024-03-23T01:05:14;17.30;;;4.20;;
76786;SDS011;65739;51.482;5.702;2024-03-23T01:07:39;10.15;;;3.95;;
76786;SDS011;65739;51.482;5.702;2024-03-23T01:10:05;17.35;;;4.32;;
76786;SDS011;65739;51.482;5.702;2024-03-23T01:12:31;14.45;;;4.53;;
76786;SDS011;65739;51.482;5.702;2024-03-23T01:14:56;18.63;;;4.80;;
76786;SDS011;65739;51.482;5.702;2024-03-23T01:17:22;15.85;;;4.10;;
76786;SDS011;65739;51.482;5.702;2024-03-23T01:19:47;21.17;;;4.45;;
76786;SDS011;65739;51.482;5.702;2024-03-23T01:22:13;13.30;;;4.22;;
76786;SDS011;65739;51.482;5.702;2024-03-23T01:24:38;13.65;;;4.55;;
76786;SDS011;65739;51.482;5.702;2024-03-23T01:27:05;19.45;;;4.82;;
76786;SDS011;65739;51.482;5.702;2024-03-23T01:29:31;14.65;;;3.95;;
76786;SDS011;65739;51.482;5.702;2024-03-23T01:31:56;17.77;;;4.50;;
76786;SDS011;65739;51.482;5.702;2024-03-23T01:34:22;16.35;;;4.35;;
76786;SDS011;65739;51.482;5.702;2024-03-23T01:36:49;15.98;;;3.80;;
76786;SDS011;65739;51.482;5.702;2024-03-23T01:39:15;14.27;;;3.75;;
76786;SDS011;65739;51.482;5.702;2024-03-23T01:41:41;18.15;;;4.28;;
76786;SDS011;65739;51.482;5.702;2024-03-23T01:44:08;12.15;;;3.63;;
76786;SDS011;65739;51.482;5.702;2024-03-23T01:46:34;16.90;;;3.80;;
76786;SDS011;65739;51.482;5.702;2024-03-23T01:49:01;13.10;;;3.83;;
76786;SDS011;65739;51.482;5.702;2024-03-23T01:51:27;13.75;;;3.85;;
76786;SDS011;65739;51.482;5.702;2024-03-23T01:53:53;11.73;;;3.38;;
76786;SDS011;65739;51.482;5.702;2024-03-23T01:56:20;12.88;;;3.30;;
76786;SDS011;65739;51.482;5.702;2024-03-23T01:58:45;13.75;;;3.22;;
76786;SDS011;65739;51.482;5.702;2024-03-23T02:01:11;14.30;;;3.50;;
76786;SDS011;65739;51.482;5.702;2024-03-23T02:03:37;11.88;;;3.33;;
76786;SDS011;65739;51.482;5.702;2024-03-23T02:06:02;14.00;;;3.47;;
76786;SDS011;65739;51.482;5.702;2024-03-23T02:08:28;12.00;;;3.08;;
76786;SDS011;65739;51.482;5.702;2024-03-23T02:10:55;10.55;;;3.67;;
76786;SDS011;65739;51.482;5.702;2024-03-23T02:13:21;11.52;;;3.45;;
76786;SDS011;65739;51.482;5.702;2024-03-23T02:15:46;12.10;;;3.80;;
76786;SDS011;65739;51.482;5.702;2024-03-23T02:18:13;15.95;;;3.65;;
76786;SDS011;65739;51.482;5.702;2024-03-23T02:20:38;18.52;;;4.15;;
76786;SDS011;65739;51.482;5.702;2024-03-23T02:23:04;17.48;;;3.88;;
76786;SDS011;65739;51.482;5.702;2024-03-23T02:25:33;19.60;;;3.72;;
76786;SDS011;65739;51.482;5.702;2024-03-23T02:27:59;19.23;;;3.90;;
76786;SDS011;65739;51.482;5.702;2024-03-23T02:30:25;18.52;;;3.80;;
76786;SDS011;65739;51.482;5.702;2024-03-23T02:32:51;15.95;;;3.88;;
76786;SDS011;65739;51.482;5.702;2024-03-23T02:35:17;18.77;;;3.60;;
76786;SDS011;65739;51.482;5.702;2024-03-23T02:37:42;16.02;;;3.78;;
76786;SDS011;65739;51.482;5.702;2024-03-23T02:40:08;16.63;;;3.67;;
76786;SDS011;65739;51.482;5.702;2024-03-23T02:42:34;15.25;;;3.53;;
76786;SDS011;65739;51.482;5.702;2024-03-23T02:44:59;10.05;;;3.65;;
76786;SDS011;65739;51.482;5.702;2024-03-23T02:47:25;13.25;;;3.63;;
76786;SDS011;65739;51.482;5.702;2024-03-23T02:49:50;15.18;;;4.20;;
76786;SDS011;65739;51.482;5.702;2024-03-23T02:52:16;19.73;;;5.00;;
76786;SDS011;65739;51.482;5.702;2024-03-23T02:54:41;17.60;;;4.50;;
76786;SDS011;65739;51.482;5.702;2024-03-23T02:57:09;15.27;;;4.13;;
76786;SDS011;65739;51.482;5.702;2024-03-23T02:59:35;18.35;;;4.47;;
76786;SDS011;65739;51.482;5.702;2024-03-23T03:02:01;15.82;;;4.75;;
76786;SDS011;65739;51.482;5.702;2024-03-23T03:04:29;14.02;;;5.00;;
76786;SDS011;65739;51.482;5.702;2024-03-23T03:06:55;12.30;;;4.38;;
76786;SDS011;65739;51.482;5.702;2024-03-23T03:09:20;18.05;;;4.88;;
76786;SDS011;65739;51.482;5.702;2024-03-23T03:11:46;12.60;;;4.53;;
76786;SDS011;65739;51.482;5.702;2024-03-23T03:14:11;15.77;;;4.10;;
76786;SDS011;65739;51.482;5.702;2024-03-23T03:16:37;16.05;;;4.38;;
76786;SDS011;65739;51.482;5.702;2024-03-23T03:19:03;16.42;;;5.22;;
76786;SDS011;65739;51.482;5.702;2024-03-23T03:21:28;12.90;;;4.30;;
76786;SDS011;65739;51.482;5.702;2024-03-23T03:23:54;22.60;;;4.68;;
76786;SDS011;65739;51.482;5.702;2024-03-23T03:26:21;17.98;;;4.47;;
76786;SDS011;65739;51.482;5.702;2024-03-23T03:28:47;22.10;;;4.75;;
76786;SDS011;65739;51.482;5.702;2024-03-23T03:31:17;14.80;;;4.55;;
76786;SDS011;65739;51.482;5.702;2024-03-23T03:33:43;12.50;;;4.13;;
76786;SDS011;65739;51.482;5.702;2024-03-23T03:36:09;21.20;;;4.85;;
76786;SDS011;65739;51.482;5.702;2024-03-23T03:38:35;16.23;;;3.72;;
76786;SDS011;65739;51.482;5.702;2024-03-23T03:41:02;16.10;;;4.75;;
76786;SDS011;65739;51.482;5.702;2024-03-23T03:43:27;16.52;;;4.40;;
76786;SDS011;65739;51.482;5.702;2024-03-23T03:45:57;10.73;;;3.72;;
76786;SDS011;65739;51.482;5.702;2024-03-23T03:48:24;17.35;;;4.20;;
76786;SDS011;65739;51.482;5.702;2024-03-23T03:50:50;16.63;;;4.13;;
76786;SDS011;65739;51.482;5.702;2024-03-23T03:53:17;15.90;;;4.50;;
76786;SDS011;65739;51.482;5.702;2024-03-23T03:55:42;18.65;;;4.43;;
76786;SDS011;65739;51.482;5.702;2024-03-23T03:58:08;14.85;;;4.63;;
76786;SDS011;65739;51.482;5.702;2024-03-23T04:00:33;21.20;;;4.07;;
76786;SDS011;65739;51.482;5.702;2024-03-23T04:02:59;12.43;;;3.95;;
76786;SDS011;65739;51.482;5.702;2024-03-23T04:05:24;18.10;;;4.07;;
76786;SDS011;65739;51.482;5.702;2024-03-23T04:10:41;15.68;;;3.45;;
76786;SDS011;65739;51.482;5.702;2024-03-23T04:13:07;9.93;;;3.30;;
76786;SDS011;65739;51.482;5.702;2024-03-23T04:15:32;13.95;;;3.63;;
76786;SDS011;65739;51.482;5.702;2024-03-23T04:17:58;11.82;;;3.00;;
76786;SDS011;65739;51.482;5.702;2024-03-23T04:20:23;12.02;;;2.90;;
76786;SDS011;65739;51.482;5.702;2024-03-23T04:22:49;14.25;;;3.35;;
76786;SDS011;65739;51.482;5.702;2024-03-23T04:25:14;16.00;;;3.70;;
76786;SDS011;65739;51.482;5.702;2024-03-23T04:27:40;18.90;;;3.78;;
76786;SDS011;65739;51.482;5.702;2024-03-23T04:30:07;16.40;;;3.63;;
76786;SDS011;65739;51.482;5.702;2024-03-23T04:32:38;13.75;;;5.07;;
76786;SDS011;65739;51.482;5.702;2024-03-23T04:35:05;18.63;;;3.60;;
76786;SDS011;65739;51.482;5.702;2024-03-23T04:37:31;11.43;;;3.42;;
76786;SDS011;65739;51.482;5.702;2024-03-23T04:39:58;16.30;;;4.57;;
76786;SDS011;65739;51.482;5.702;2024-03-23T04:42:24;13.13;;;3.85;;
76786;SDS011;65739;51.482;5.702;2024-03-23T04:44:50;16.17;;;4.07;;
76786;SDS011;65739;51.482;5.702;2024-03-23T04:47:15;12.98;;;4.38;;
76786;SDS011;65739;51.482;5.702;2024-03-23T04:49:41;13.48;;;3.63;;
76786;SDS011;65739;51.482;5.702;2024-03-23T04:52:07;16.60;;;3.83;;
76786;SDS011;65739;51.482;5.702;2024-03-23T04:54:32;13.98;;;3.63;;
76786;SDS011;65739;51.482;5.702;2024-03-23T04:56:58;17.90;;;4.32;;
76786;SDS011;65739;51.482;5.702;2024-03-23T04:59:24;11.20;;;3.88;;
76786;SDS011;65739;51.482;5.702;2024-03-23T05:01:50;18.42;;;4.43;;
76786;SDS011;65739;51.482;5.702;2024-03-23T05:04:15;21.45;;;5.00;;
76786;SDS011;65739;51.482;5.702;2024-03-23T05:06:41;15.73;;;4.22;;
76786;SDS011;65739;51.482;5.702;2024-03-23T05:09:06;15.40;;;5.10;;
76786;SDS011;65739;51.482;5.702;2024-03-23T05:11:35;20.75;;;5.75;;
76786;SDS011;65739;51.482;5.702;2024-03-23T05:14:01;19.08;;;5.85;;
76786;SDS011;65739;51.482;5.702;2024-03-23T05:16:28;13.55;;;5.13;;
76786;SDS011;65739;51.482;5.702;2024-03-23T05:18:53;29.77;;;6.82;;
76786;SDS011;65739;51.482;5.702;2024-03-23T05:21:19;22.67;;;7.40;;
76786;SDS011;65739;51.482;5.702;2024-03-23T05:23:44;16.52;;;6.78;;
76786;SDS011;65739;51.482;5.702;2024-03-23T05:26:10;23.35;;;6.97;;
76786;SDS011;65739;51.482;5.702;2024-03-23T05:28:36;21.05;;;8.52;;
76786;SDS011;65739;51.482;5.702;2024-03-23T05:31:01;29.00;;;8.60;;
76786;SDS011;65739;51.482;5.702;2024-03-23T05:33:27;27.23;;;8.10;;
76786;SDS011;65739;51.482;5.702;2024-03-23T05:35:56;30.60;;;8.10;;
76786;SDS011;65739;51.482;5.702;2024-03-23T05:38:22;25.67;;;9.53;;
76786;SDS011;65739;51.482;5.702;2024-03-23T05:40:57;31.90;;;9.05;;
76786;SDS011;65739;51.482;5.702;2024-03-23T05:43:24;27.85;;;9.02;;
76786;SDS011;65739;51.482;5.702;2024-03-23T05:45:53;28.55;;;9.52;;
76786;SDS011;65739;51.482;5.702;2024-03-23T05:48:19;30.13;;;9.67;;
76786;SDS011;65739;51.482;5.702;2024-03-23T05:50:45;30.25;;;10.13;;
76786;SDS011;65739;51.482;5.702;2024-03-23T05:53:10;32.00;;;9.80;;
76786;SDS011;65739;51.482;5.702;2024-03-23T05:55:37;25.70;;;9.93;;
76786;SDS011;65739;51.482;5.702;2024-03-23T05:58:03;27.92;;;9.68;;
76786;SDS011;65739;51.482;5.702;2024-03-23T06:00:29;37.03;;;9.70;;
76786;SDS011;65739;51.482;5.702;2024-03-23T06:02:54;32.42;;;10.32;;
76786;SDS011;65739;51.482;5.702;2024-03-23T06:05:20;27.80;;;9.38;;
76786;SDS011;65739;51.482;5.702;2024-03-23T06:07:45;26.23;;;9.32;;
76786;SDS011;65739;51.482;5.702;2024-03-23T06:10:11;31.15;;;9.93;;
76786;SDS011;65739;51.482;5.702;2024-03-23T06:12:36;28.30;;;9.57;;
76786;SDS011;65739;51.482;5.702;2024-03-23T06:15:02;30.25;;;9.35;;
76786;SDS011;65739;51.482;5.702;2024-03-23T06:17:28;32.97;;;8.68;;
76786;SDS011;65739;51.482;5.702;2024-03-23T06:19:53;27.40;;;8.55;;
76786;SDS011;65739;51.482;5.702;2024-03-23T06:22:19;29.80;;;8.40;;
76786;SDS011;65739;51.482;5.702;2024-03-23T06:24:45;35.53;;;8.18;;
76786;SDS011;65739;51.482;5.702;2024-03-23T06:27:11;29.23;;;8.32;;
76786;SDS011;65739;51.482;5.702;2024-03-23T06:29:39;22.35;;;7.72;;
76786;SDS011;65739;51.482;5.702;2024-03-23T06:32:05;21.00;;;7.65;;
76786;SDS011;65739;51.482;5.702;2024-03-23T06:34:30;28.85;;;7.30;;
76786;SDS011;65739;51.482;5.702;2024-03-23T06:36:56;22.05;;;7.00;;
76786;SDS011;65739;51.482;5.702;2024-03-23T06:39:21;31.40;;;7.47;;
76786;SDS011;65739;51.482;5.702;2024-03-23T06:41:53;24.05;;;7.07;;
76786;SDS011;65739;51.482;5.702;2024-03-23T06:44:19;26.02;;;7.00;;
76786;SDS011;65739;51.482;5.702;2024-03-23T06:46:45;21.17;;;6.78;;
76786;SDS011;65739;51.482;5.702;2024-03-23T06:49:11;20.58;;;6.28;;
76786;SDS011;65739;51.482;5.702;2024-03-23T06:51:37;17.98;;;5.70;;
76786;SDS011;65739;51.482;5.702;2024-03-23T06:54:03;19.58;;;4.95;;
76786;SDS011;65739;51.482;5.702;2024-03-23T06:56:29;7.63;;;3.30;;
76786;SDS011;65739;51.482;5.702;2024-03-23T06:58:55;11.00;;;3.28;;
76786;SDS011;65739;51.482;5.702;2024-03-23T07:01:21;12.55;;;3.30;;
76786;SDS011;65739;51.482;5.702;2024-03-23T07:03:46;12.57;;;3.33;;
76786;SDS011;65739;51.482;5.702;2024-03-23T07:06:12;10.13;;;3.10;;
76786;SDS011;65739;51.482;5.702;2024-03-23T07:08:40;9.50;;;3.60;;
76786;SDS011;65739;51.482;5.702;2024-03-23T07:11:08;17.92;;;3.80;;
76786;SDS011;65739;51.482;5.702;2024-03-23T07:13:34;13.80;;;3.97;;
76786;SDS011;65739;51.482;5.702;2024-03-23T07:15:59;11.90;;;3.47;;
76786;SDS011;65739;51.482;5.702;2024-03-23T07:18:25;11.07;;;3.42;;
76786;SDS011;65739;51.482;5.702;2024-03-23T07:20:52;15.20;;;3.80;;
76786;SDS011;65739;51.482;5.702;2024-03-23T07:23:21;13.30;;;3.03;;
76786;SDS011;65739;51.482;5.702;2024-03-23T07:26:00;11.55;;;2.92;;
76786;SDS011;65739;51.482;5.702;2024-03-23T07:28:27;15.60;;;3.20;;
76786;SDS011;65739;51.482;5.702;2024-03-23T07:33:33;10.70;;;3.70;;
76786;SDS011;65739;51.482;5.702;2024-03-23T07:35:59;18.08;;;4.32;;
76786;SDS011;65739;51.482;5.702;2024-03-23T07:38:26;17.88;;;3.95;;
76786;SDS011;65739;51.482;5.702;2024-03-23T07:40:55;13.27;;;4.05;;
76786;SDS011;65739;51.482;5.702;2024-03-23T07:43:28;13.50;;;3.47;;
76786;SDS011;65739;51.482;5.702;2024-03-23T07:45:53;11.63;;;3.17;;
76786;SDS011;65739;51.482;5.702;2024-03-23T07:48:20;7.95;;;2.70;;
76786;SDS011;65739;51.482;5.702;2024-03-23T07:51:06;7.63;;;2.35;;
76786;SDS011;65739;51.482;5.702;2024-03-23T07:53:36;8.30;;;2.30;;
76786;SDS011;65739;51.482;5.702;2024-03-23T07:56:04;16.08;;;3.22;;
76786;SDS011;65739;51.482;5.702;2024-03-23T07:58:31;15.20;;;3.45;;
76786;SDS011;65739;51.482;5.702;2024-03-23T08:01:03;12.73;;;3.55;;
76786;SDS011;65739;51.482;5.702;2024-03-23T08:03:40;17.75;;;4.15;;
76786;SDS011;65739;51.482;5.702;2024-03-23T08:06:07;11.68;;;3.40;;
76786;SDS011;65739;51.482;5.702;2024-03-23T08:08:34;14.73;;;4.15;;
76786;SDS011;65739;51.482;5.702;2024-03-23T08:11:00;12.48;;;3.53;;
76786;SDS011;65739;51.482;5.702;2024-03-23T08:13:26;12.27;;;3.05;;
76786;SDS011;65739;51.482;5.702;2024-03-23T08:15:52;19.42;;;3.63;;
76786;SDS011;65739;51.482;5.702;2024-03-23T08:18:21;12.70;;;3.03;;
76786;SDS011;65739;51.482;5.702;2024-03-23T08:20:46;7.90;;;2.40;;
76786;SDS011;65739;51.482;5.702;2024-03-23T08:23:19;11.43;;;3.30;;
76786;SDS011;65739;51.482;5.702;2024-03-23T08:25:45;11.05;;;2.30;;
76786;SDS011;65739;51.482;5.702;2024-03-23T08:28:11;10.82;;;2.25;;
76786;SDS011;65739;51.482;5.702;2024-03-23T08:30:36;14.95;;;2.50;;
76786;SDS011;65739;51.482;5.702;2024-03-23T08:33:31;12.55;;;2.60;;
76786;SDS011;65739;51.482;5.702;2024-03-23T08:35:58;10.98;;;2.50;;
76786;SDS011;65739;51.482;5.702;2024-03-23T08:38:25;12.93;;;2.72;;
76786;SDS011;65739;51.482;5.702;2024-03-23T08:43:35;10.45;;;2.10;;
76786;SDS011;65739;51.482;5.702;2024-03-23T08:48:41;8.43;;;2.00;;
76786;SDS011;65739;51.482;5.702;2024-03-23T08:51:13;8.90;;;1.77;;
76786;SDS011;65739;51.482;5.702;2024-03-23T08:53:40;8.43;;;1.80;;
76786;SDS011;65739;51.482;5.702;2024-03-23T08:56:06;6.35;;;1.60;;
76786;SDS011;65739;51.482;5.702;2024-03-23T08:58:33;9.15;;;1.88;;
76786;SDS011;65739;51.482;5.702;2024-03-23T09:01:03;10.52;;;1.67;;
76786;SDS011;65739;51.482;5.702;2024-03-23T09:03:31;9.70;;;2.43;;
76786;SDS011;65739;51.482;5.702;2024-03-23T09:05:56;10.50;;;1.92;;
76786;SDS011;65739;51.482;5.702;2024-03-23T09:08:23;12.55;;;2.00;;
76786;SDS011;65739;51.482;5.702;2024-03-23T09:10:49;6.97;;;1.67;;
76786;SDS011;65739;51.482;5.702;2024-03-23T09:13:15;8.82;;;1.58;;
76786;SDS011;65739;51.482;5.702;2024-03-23T09:15:51;7.03;;;1.73;;
76786;SDS011;65739;51.482;5.702;2024-03-23T09:18:21;6.70;;;1.63;;
76786;SDS011;65739;51.482;5.702;2024-03-23T09:20:46;9.18;;;1.50;;
76786;SDS011;65739;51.482;5.702;2024-03-23T09:23:12;3.00;;;0.95;;
76786;SDS011;65739;51.482;5.702;2024-03-23T09:25:38;2.08;;;0.60;;
76786;SDS011;65739;51.482;5.702;2024-03-23T09:28:04;3.65;;;0.70;;
76786;SDS011;65739;51.482;5.702;2024-03-23T09:30:32;3.20;;;0.57;;
76786;SDS011;65739;51.482;5.702;2024-03-23T09:32:58;3.88;;;0.60;;
76786;SDS011;65739;51.482;5.702;2024-03-23T09:35:24;1.55;;;0.60;;
76786;SDS011;65739;51.482;5.702;2024-03-23T09:37:49;2.50;;;0.65;;
76786;SDS011;65739;51.482;5.702;2024-03-23T09:40:15;3.38;;;0.90;;
76786;SDS011;65739;51.482;5.702;2024-03-23T09:42:41;2.50;;;0.70;;
76786;SDS011;65739;51.482;5.702;2024-03-23T09:45:16;3.15;;;0.90;;
76786;SDS011;65739;51.482;5.702;2024-03-23T09:47:44;6.07;;;1.40;;
76786;SDS011;65739;51.482;5.702;2024-03-23T09:50:12;6.15;;;0.93;;
76786;SDS011;65739;51.482;5.702;2024-03-23T09:52:38;4.50;;;1.20;;
76786;SDS011;65739;51.482;5.702;2024-03-23T09:55:04;5.38;;;1.00;;
76786;SDS011;65739;51.482;5.702;2024-03-23T09:57:30;4.68;;;0.82;;
76786;SDS011;65739;51.482;5.702;2024-03-23T09:59:56;4.88;;;0.93;;
76786;SDS011;65739;51.482;5.702;2024-03-23T10:02:23;5.47;;;1.23;;
76786;SDS011;65739;51.482;5.702;2024-03-23T10:04:49;5.60;;;1.20;;
76786;SDS011;65739;51.482;5.702;2024-03-23T10:07:15;5.20;;;1.17;;
76786;SDS011;65739;51.482;5.702;2024-03-23T10:09:44;5.47;;;1.08;;
76786;SDS011;65739;51.482;5.702;2024-03-23T10:12:12;3.47;;;1.48;;
76786;SDS011;65739;51.482;5.702;2024-03-23T10:14:39;5.82;;;1.50;;
76786;SDS011;65739;51.482;5.702;2024-03-23T10:17:12;3.22;;;0.90;;
76786;SDS011;65739;51.482;5.702;2024-03-23T10:19:40;8.85;;;1.60;;
76786;SDS011;65739;51.482;5.702;2024-03-23T10:22:07;6.20;;;1.60;;
76786;SDS011;65739;51.482;5.702;2024-03-23T10:24:34;5.38;;;1.35;;
76786;SDS011;65739;51.482;5.702;2024-03-23T10:27:00;9.35;;;1.40;;
76786;SDS011;65739;51.482;5.702;2024-03-23T10:29:25;7.70;;;0.93;;
76786;SDS011;65739;51.482;5.702;2024-03-23T10:31:53;5.03;;;0.65;;
76786;SDS011;65739;51.482;5.702;2024-03-23T10:34:26;2.95;;;0.50;;
76786;SDS011;65739;51.482;5.702;2024-03-23T10:36:55;2.08;;;0.63;;
76786;SDS011;65739;51.482;5.702;2024-03-23T10:39:23;3.20;;;0.68;;
76786;SDS011;65739;51.482;5.702;2024-03-23T10:41:52;3.25;;;0.68;;
76786;SDS011;65739;51.482;5.702;2024-03-23T10:44:21;4.45;;;1.05;;
76786;SDS011;65739;51.482;5.702;2024-03-23T10:46:50;3.05;;;0.63;;
76786;SDS011;65739;51.482;5.702;2024-03-23T10:49:15;5.25;;;1.00;;
76786;SDS011;65739;51.482;5.702;2024-03-23T10:51:41;7.30;;;1.45;;
76786;SDS011;65739;51.482;5.702;2024-03-23T10:54:07;6.80;;;1.13;;
76786;SDS011;65739;51.482;5.702;2024-03-23T10:56:38;3.65;;;0.80;;
76786;SDS011;65739;51.482;5.702;2024-03-23T10:59:04;7.40;;;1.00;;
76786;SDS011;65739;51.482;5.702;2024-03-23T11:01:33;8.43;;;1.40;;
76786;SDS011;65739;51.482;5.702;2024-03-23T11:03:58;5.93;;;1.35;;
76786;SDS011;65739;51.482;5.702;2024-03-23T11:06:34;5.82;;;1.30;;
76786;SDS011;65739;51.482;5.702;2024-03-23T11:09:14;3.78;;;1.48;;
76786;SDS011;65739;51.482;5.702;2024-03-23T11:14:51;3.67;;;1.10;;
76786;SDS011;65739;51.482;5.702;2024-03-23T11:17:21;4.93;;;1.60;;
76786;SDS011;65739;51.482;5.702;2024-03-23T11:22:43;6.60;;;1.48;;
76786;SDS011;65739;51.482;5.702;2024-03-23T11:25:15;5.65;;;1.30;;
76786;SDS011;65739;51.482;5.702;2024-03-23T11:27:41;5.53;;;1.10;;
76786;SDS011;65739;51.482;5.702;2024-03-23T11:32:48;4.82;;;1.25;;
76786;SDS011;65739;51.482;5.702;2024-03-23T11:35:27;3.08;;;1.13;;
76786;SDS011;65739;51.482;5.702;2024-03-23T11:38:06;8.50;;;1.55;;
76786;SDS011;65739;51.482;5.702;2024-03-23T11:41:11;4.22;;;1.45;;
76786;SDS011;65739;51.482;5.702;2024-03-23T11:43:37;8.55;;;1.30;;
76786;SDS011;65739;51.482;5.702;2024-03-23T11:46:02;5.15;;;1.38;;
76786;SDS011;65739;51.482;5.702;2024-03-23T11:48:29;3.38;;;1.42;;
76786;SDS011;65739;51.482;5.702;2024-03-23T11:50:58;1.42;;;0.70;;
76786;SDS011;65739;51.482;5.702;2024-03-23T11:53:24;4.18;;;0.88;;
76786;SDS011;65739;51.482;5.702;2024-03-23T11:55:56;2.33;;;0.68;;
76786;SDS011;65739;51.482;5.702;2024-03-23T11:58:23;1.58;;;0.60;;
76786;SDS011;65739;51.482;5.702;2024-03-23T12:00:56;2.72;;;0.52;;
76786;SDS011;65739;51.482;5.702;2024-03-23T12:03:22;1.33;;;0.47;;
76786;SDS011;65739;51.482;5.702;2024-03-23T12:08:29;3.05;;;0.70;;
76786;SDS011;65739;51.482;5.702;2024-03-23T12:11:12;3.53;;;0.63;;
76786;SDS011;65739;51.482;5.702;2024-03-23T12:13:38;1.95;;;0.60;;
76786;SDS011;65739;51.482;5.702;2024-03-23T12:16:16;3.63;;;0.50;;
76786;SDS011;65739;51.482;5.702;2024-03-23T12:18:45;5.07;;;0.80;;
76786;SDS011;65739;51.482;5.702;2024-03-23T12:21:16;3.17;;;0.50;;
76786;SDS011;65739;51.482;5.702;2024-03-23T12:23:42;4.43;;;0.70;;
76786;SDS011;65739;51.482;5.702;2024-03-23T12:26:16;5.40;;;0.80;;
76786;SDS011;65739;51.482;5.702;2024-03-23T12:28:43;1.98;;;0.50;;
76786;SDS011;65739;51.482;5.702;2024-03-23T12:31:08;3.00;;;0.55;;
76786;SDS011;65739;51.482;5.702;2024-03-23T12:33:35;2.58;;;0.57;;
76786;SDS011;65739;51.482;5.702;2024-03-23T12:36:03;2.05;;;0.40;;
76786;SDS011;65739;51.482;5.702;2024-03-23T12:38:29;3.85;;;0.88;;
76786;SDS011;65739;51.482;5.702;2024-03-23T12:40:55;1.45;;;0.60;;
76786;SDS011;65739;51.482;5.702;2024-03-23T12:43:20;3.15;;;1.17;;
76786;SDS011;65739;51.482;5.702;2024-03-23T12:45:46;3.60;;;0.70;;
76786;SDS011;65739;51.482;5.702;2024-03-23T12:48:12;2.67;;;0.70;;
76786;SDS011;65739;51.482;5.702;2024-03-23T12:50:38;3.70;;;0.70;;
76786;SDS011;65739;51.482;5.702;2024-03-23T12:53:04;4.35;;;0.90;;
76786;SDS011;65739;51.482;5.702;2024-03-23T12:55:29;4.22;;;0.80;;
76786;SDS011;65739;51.482;5.702;2024-03-23T12:57:55;6.22;;;0.80;;
76786;SDS011;65739;51.482;5.702;2024-03-23T13:00:21;3.78;;;0.70;;
76786;SDS011;65739;51.482;5.702;2024-03-23T13:02:47;5.47;;;1.02;;
76786;SDS011;65739;51.482;5.702;2024-03-23T13:05:13;2.65;;;0.50;;
76786;SDS011;65739;51.482;5.702;2024-03-23T13:07:38;4.35;;;0.80;;
76786;SDS011;65739;51.482;5.702;2024-03-23T13:10:07;4.75;;;0.60;;
76786;SDS011;65739;51.482;5.702;2024-03-23T13:12:33;3.10;;;0.50;;
76786;SDS011;65739;51.482;5.702;2024-03-23T13:15:00;3.58;;;0.47;;
76786;SDS011;65739;51.482;5.702;2024-03-23T13:17:26;1.80;;;0.52;;
76786;SDS011;65739;51.482;5.702;2024-03-23T13:19:52;1.00;;;0.52;;
76786;SDS011;65739;51.482;5.702;2024-03-23T13:22:18;5.43;;;0.70;;
76786;SDS011;65739;51.482;5.702;2024-03-23T13:24:44;3.22;;;0.52;;
76786;SDS011;65739;51.482;5.702;2024-03-23T13:27:10;2.15;;;0.70;;
76786;SDS011;65739;51.482;5.702;2024-03-23T13:29:36;4.82;;;0.70;;
76786;SDS011;65739;51.482;5.702;2024-03-23T13:32:04;4.40;;;0.68;;
76786;SDS011;65739;51.482;5.702;2024-03-23T13:34:30;3.30;;;0.60;;
76786;SDS011;65739;51.482;5.702;2024-03-23T13:36:59;3.88;;;1.00;;
76786;SDS011;65739;51.482;5.702;2024-03-23T13:39:25;4.13;;;0.70;;
76786;SDS011;65739;51.482;5.702;2024-03-23T13:41:52;2.63;;;0.50;;
76786;SDS011;65739;51.482;5.702;2024-03-23T13:44:19;2.35;;;0.80;;
76786;SDS011;65739;51.482;5.702;2024-03-23T13:46:45;3.40;;;1.10;;
76786;SDS011;65739;51.482;5.702;2024-03-23T13:49:25;4.78;;;0.80;;
76786;SDS011;65739;51.482;5.702;2024-03-23T13:51:52;2.70;;;0.70;;
76786;SDS011;65739;51.482;5.702;2024-03-23T13:54:19;5.00;;;0.88;;
76786;SDS011;65739;51.482;5.702;2024-03-23T13:56:50;6.15;;;0.90;;
76786;SDS011;65739;51.482;5.702;2024-03-23T13:59:16;2.42;;;0.70;;
76786;SDS011;65739;51.482;5.702;2024-03-23T14:01:43;2.75;;;0.60;;
76786;SDS011;65739;51.482;5.702;2024-03-23T14:04:12;4.45;;;0.60;;
76786;SDS011;65739;51.482;5.702;2024-03-23T14:06:38;1.98;;;0.65;;
76786;SDS011;65739;51.482;5.702;2024-03-23T14:09:04;3.95;;;1.02;;
76786;SDS011;65739;51.482;5.702;2024-03-23T14:11:36;5.82;;;0.82;;
76786;SDS011;65739;51.482;5.702;2024-03-23T14:14:02;5.97;;;0.70;;
76786;SDS011;65739;51.482;5.702;2024-03-23T14:16:29;5.10;;;0.80;;
76786;SDS011;65739;51.482;5.702;2024-03-23T14:18:58;3.22;;;0.80;;
76786;SDS011;65739;51.482;5.702;2024-03-23T14:21:24;3.10;;;0.80;;
76786;SDS011;65739;51.482;5.702;2024-03-23T14:23:49;3.72;;;0.93;;
76786;SDS011;65739;51.482;5.702;2024-03-23T14:26:18;3.42;;;0.70;;
76786;SDS011;65739;51.482;5.702;2024-03-23T14:28:43;5.20;;;0.82;;
76786;SDS011;65739;51.482;5.702;2024-03-23T14:31:09;10.00;;;1.13;;
76786;SDS011;65739;51.482;5.702;2024-03-23T14:33:38;3.50;;;0.90;;
76786;SDS011;65739;51.482;5.702;2024-03-23T14:36:06;5.63;;;1.10;;
76786;SDS011;65739;51.482;5.702;2024-03-23T14:38:33;7.38;;;1.50;;
76786;SDS011;65739;51.482;5.702;2024-03-23T14:40:59;5.35;;;0.90;;
76786;SDS011;65739;51.482;5.702;2024-03-23T14:43:26;6.45;;;1.27;;
76786;SDS011;65739;51.482;5.702;2024-03-23T14:46:13;10.40;;;1.73;;
76786;SDS011;65739;51.482;5.702;2024-03-23T14:48:38;5.38;;;1.10;;
76786;SDS011;65739;51.482;5.702;2024-03-23T14:51:05;7.00;;;1.42;;
76786;SDS011;65739;51.482;5.702;2024-03-23T14:53:34;4.88;;;1.00;;
76786;SDS011;65739;51.482;5.702;2024-03-23T14:56:01;3.38;;;0.88;;
76786;SDS011;65739;51.482;5.702;2024-03-23T14:58:28;3.20;;;0.98;;
76786;SDS011;65739;51.482;5.702;2024-03-23T15:01:04;5.43;;;1.02;;
76786;SDS011;65739;51.482;5.702;2024-03-23T15:03:32;6.80;;;1.10;;
76786;SDS011;65739;51.482;5.702;2024-03-23T15:05:58;3.10;;;1.02;;
76786;SDS011;65739;51.482;5.702;2024-03-23T15:08:25;3.95;;;0.98;;
76786;SDS011;65739;51.482;5.702;2024-03-23T15:10:50;5.50;;;1.20;;
76786;SDS011;65739;51.482;5.702;2024-03-23T15:13:16;3.33;;;1.20;;
76786;SDS011;65739;51.482;5.702;2024-03-23T15:15:42;5.47;;;1.30;;
76786;SDS011;65739;51.482;5.702;2024-03-23T15:18:13;4.93;;;1.27;;
76786;SDS011;65739;51.482;5.702;2024-03-23T15:20:52;6.32;;;1.05;;
76786;SDS011;65739;51.482;5.702;2024-03-23T15:23:18;4.13;;;0.77;;
76786;SDS011;65739;51.482;5.702;2024-03-23T15:25:43;1.42;;;0.90;;
76786;SDS011;65739;51.482;5.702;2024-03-23T15:28:09;2.55;;;0.85;;
76786;SDS011;65739;51.482;5.702;2024-03-23T15:30:35;3.20;;;0.93;;
76786;SDS011;65739;51.482;5.702;2024-03-23T15:33:00;6.60;;;0.93;;
76786;SDS011;65739;51.482;5.702;2024-03-23T15:35:27;7.70;;;1.20;;
76786;SDS011;65739;51.482;5.702;2024-03-23T15:37:53;7.47;;;0.90;;
76786;SDS011;65739;51.482;5.702;2024-03-23T15:40:18;6.35;;;0.70;;
76786;SDS011;65739;51.482;5.702;2024-03-23T15:42:44;4.38;;;0.88;;
76786;SDS011;65739;51.482;5.702;2024-03-23T15:45:09;4.28;;;0.80;;
76786;SDS011;65739;51.482;5.702;2024-03-23T15:47:35;3.75;;;0.70;;
76786;SDS011;65739;51.482;5.702;2024-03-23T15:50:01;1.58;;;0.55;;
76786;SDS011;65739;51.482;5.702;2024-03-23T15:52:33;3.65;;;0.57;;
76786;SDS011;65739;51.482;5.702;2024-03-23T15:54:59;3.95;;;0.70;;